createdAt,value
2018-04-25T00:03:53.041Z,23.80
2018-04-25T00:08:44.785Z,22.10
2018-04-25T00:13:35.779Z,27.20
2018-04-25T00:18:26.783Z,30.47
2018-04-25T00:23:17.859Z,25.07
2018-04-25T00:28:09.029Z,27.60
2018-04-25T00:33:00.043Z,26.50
2018-04-25T00:37:51.044Z,26.27
2018-04-25T00:42:42.085Z,24.77
2018-04-25T00:47:33.131Z,23.97
2018-04-25T00:52:24.185Z,28.17
2018-04-25T00:57:15.907Z,25.67
2018-04-25T01:02:07.778Z,25.03
2018-04-25T01:06:58.816Z,26.33
2018-04-25T01:11:49.893Z,27.03
2018-04-25T01:16:44.812Z,25.43
2018-04-25T01:21:36.531Z,24.03
2018-04-25T01:26:27.530Z,25.33
2018-04-25T01:31:30.499Z,24.53
2018-04-25T01:36:21.481Z,24.93
2018-04-25T01:41:13.336Z,25.63
2018-04-25T01:46:08.960Z,22.63
2018-04-25T01:50:59.847Z,23.53
2018-04-25T01:56:09.490Z,24.43
2018-04-25T02:01:19.197Z,24.93
2018-04-25T02:06:10.189Z,26.90
2018-04-25T02:11:01.205Z,24.07
2018-04-25T02:15:52.217Z,28.50
2018-04-25T02:20:43.199Z,27.13
2018-04-25T02:25:34.941Z,29.13
2018-04-25T02:30:26.691Z,27.43
2018-04-25T02:35:18.429Z,30.33
2018-04-25T02:40:09.532Z,27.20
2018-04-25T02:45:01.279Z,25.03
2018-04-25T02:49:53.017Z,26.60
2018-04-25T02:54:45.497Z,26.53
2018-04-25T02:59:36.536Z,27.97
2018-04-25T03:04:27.550Z,21.63
2018-04-25T03:09:18.552Z,24.07
2018-04-25T03:14:10.304Z,23.77
2018-04-25T03:19:01.317Z,20.37
2018-04-25T03:23:53.089Z,21.87
2018-04-25T03:28:44.320Z,22.13
2018-04-25T03:33:35.317Z,21.97
2018-04-25T03:38:26.316Z,22.00
2018-04-25T03:43:18.061Z,24.53
2018-04-25T03:48:09.809Z,22.63
2018-04-25T03:53:01.555Z,26.13
2018-04-25T03:57:52.556Z,23.37
2018-04-25T04:02:44.463Z,24.20
2018-04-25T04:07:35.511Z,23.53
2018-04-25T04:12:26.512Z,22.37
2018-04-25T04:17:17.575Z,19.10
2018-04-25T04:22:09.436Z,18.60
2018-04-25T04:27:00.448Z,20.73
2018-04-25T04:31:52.218Z,21.87
2018-04-25T04:36:43.219Z,21.97
2018-04-25T04:41:34.231Z,18.70
2018-04-25T04:46:25.992Z,22.60
2018-04-25T04:51:16.997Z,23.23
2018-04-25T04:56:08.739Z,16.93
2018-04-25T05:01:00.500Z,17.63
2018-04-25T05:05:51.487Z,17.73
2018-04-25T05:10:42.540Z,18.80
2018-04-25T05:15:33.950Z,21.30
2018-04-25T05:20:25.021Z,21.23
2018-04-25T05:25:16.044Z,21.73
2018-04-25T05:30:07.076Z,20.80
2018-04-25T05:34:58.209Z,20.57
2018-04-25T05:39:49.521Z,17.07
2018-04-25T05:44:40.559Z,15.47
2018-04-25T05:49:31.563Z,17.43
2018-04-25T05:54:22.581Z,19.93
2018-04-25T05:59:13.618Z,17.83
2018-04-25T06:04:04.680Z,15.63
2018-04-25T06:08:55.732Z,19.23
2018-04-25T06:13:46.751Z,14.47
2018-04-25T06:18:38.680Z,20.07
2018-04-25T06:23:29.734Z,18.10
2018-04-25T06:28:20.782Z,15.43
2018-04-25T06:33:11.832Z,16.33
2018-04-25T06:38:02.839Z,15.83
2018-04-25T06:42:53.955Z,17.87
2018-04-25T06:47:44.971Z,17.97
2018-04-25T06:52:36.043Z,15.97
2018-04-25T06:57:27.797Z,14.17
2018-04-25T07:02:19.626Z,17.97
2018-04-25T07:07:11.393Z,13.37
2018-04-25T07:12:02.396Z,16.10
2018-04-25T07:16:54.201Z,14.97
2018-04-25T07:21:45.221Z,11.63
2018-04-25T07:26:36.226Z,10.87
2018-04-25T07:31:27.265Z,11.90
2018-04-25T07:36:18.338Z,11.30
2018-04-25T07:41:24.403Z,11.27
2018-04-25T07:46:16.288Z,14.07
2018-04-25T07:51:07.359Z,10.70
2018-04-25T07:55:58.400Z,10.37
2018-04-25T08:00:50.181Z,12.03
2018-04-25T08:05:41.191Z,12.43
2018-04-25T08:10:32.352Z,11.60
2018-04-25T08:15:42.313Z,11.20
2018-04-25T08:26:15.478Z,9.67
2018-04-25T08:31:06.486Z,11.70
2018-04-25T08:35:57.511Z,8.77
2018-04-25T08:40:48.696Z,11.87
2018-04-25T08:45:39.754Z,10.03
2018-04-25T08:50:30.768Z,9.50
2018-04-25T08:55:21.776Z,11.97
2018-04-25T09:00:12.801Z,11.67
2018-04-25T09:05:03.856Z,11.33
2018-04-25T09:09:54.892Z,11.83
2018-04-25T09:14:46.669Z,9.87
2018-04-25T09:19:37.680Z,8.83
2018-04-25T09:24:29.487Z,10.10
2018-04-25T09:29:20.485Z,10.93
2018-04-25T09:34:11.505Z,9.70
2018-04-25T09:39:02.517Z,14.03
2018-04-25T09:43:53.548Z,11.03
2018-04-25T09:48:44.972Z,11.70
2018-04-25T09:53:36.128Z,15.00
2018-04-25T09:58:27.157Z,10.80
2018-04-25T10:03:22.229Z,10.23
2018-04-25T10:08:13.245Z,12.93
2018-04-25T10:13:04.308Z,9.63
2018-04-25T10:17:55.309Z,11.23
2018-04-25T10:22:46.349Z,17.93
2018-04-25T10:27:37.363Z,9.97
2018-04-25T10:32:28.392Z,12.37
2018-04-25T10:37:19.614Z,11.03
2018-04-25T10:42:10.657Z,14.00
2018-04-25T10:47:01.683Z,8.13
2018-04-25T10:51:52.708Z,12.97
2018-04-25T10:56:43.847Z,16.23
2018-04-25T11:01:34.885Z,9.27
2018-04-25T11:06:26.629Z,15.07
2018-04-25T11:11:18.375Z,12.23
2018-04-25T11:16:10.169Z,9.10
2018-04-25T11:21:01.181Z,11.23
2018-04-25T11:25:52.186Z,8.47
2018-04-25T11:30:43.192Z,6.60
2018-04-25T11:35:34.360Z,8.73
2018-04-25T11:40:25.362Z,5.50
2018-04-25T11:45:16.418Z,7.07
2018-04-25T11:50:07.430Z,4.30
2018-04-25T11:54:58.460Z,5.67
2018-04-25T11:59:49.621Z,7.67
2018-04-25T12:04:41.383Z,4.40
2018-04-25T12:09:32.436Z,4.77
2018-04-25T12:14:23.472Z,4.93
2018-04-25T12:19:14.557Z,4.90
2018-04-25T12:24:05.584Z,6.53
2018-04-25T12:28:56.626Z,7.00
2018-04-25T12:33:47.649Z,6.03
2018-04-25T12:38:38.763Z,5.87
2018-04-25T12:43:29.882Z,4.30
2018-04-25T12:48:21.108Z,5.47
2018-04-25T12:53:12.153Z,8.00
2018-04-25T12:58:03.165Z,5.43
2018-04-25T13:02:54.239Z,8.90
2018-04-25T13:07:46.098Z,6.10
2018-04-25T13:12:37.869Z,7.27
2018-04-25T13:17:29.876Z,8.73
2018-04-25T13:22:21.657Z,11.73
2018-04-25T13:27:12.678Z,8.57
2018-04-25T13:32:03.704Z,12.40
2018-04-25T13:36:54.848Z,11.57
2018-04-25T13:41:45.872Z,7.87
2018-04-25T13:46:36.935Z,9.07
2018-04-25T13:51:28.730Z,14.97
2018-04-25T13:56:19.855Z,21.27
2018-04-25T14:01:10.882Z,17.17
2018-04-25T14:06:01.983Z,15.10
2018-04-25T14:10:53.804Z,17.97
2018-04-25T14:15:44.869Z,13.50
2018-04-25T14:20:35.905Z,10.27
2018-04-25T14:25:26.961Z,10.60
2018-04-25T14:30:19.003Z,11.53
2018-04-25T14:35:10.108Z,11.57
2018-04-25T14:40:01.121Z,11.23
2018-04-25T14:44:52.205Z,9.77
2018-04-25T14:49:43.225Z,6.80
2018-04-25T14:54:34.315Z,6.20
2018-04-25T14:59:26.066Z,4.23
2018-04-25T15:04:17.861Z,11.97
2018-04-25T15:09:09.157Z,8.10
2018-04-25T15:14:00.199Z,6.13
2018-04-25T15:18:51.209Z,10.27
2018-04-25T15:23:42.287Z,3.27
2018-04-25T15:28:34.102Z,7.07
2018-04-25T15:33:25.218Z,5.60
2018-04-25T15:38:16.220Z,6.10
2018-04-25T15:43:07.243Z,7.60
2018-04-25T15:47:58.261Z,2.77
2018-04-25T15:52:49.282Z,4.17
2018-04-25T15:57:40.371Z,3.67
2018-04-25T16:02:32.161Z,2.80
2018-04-25T16:07:23.243Z,3.13
2018-04-25T16:12:15.165Z,2.73
2018-04-25T16:17:06.896Z,5.83
2018-04-25T16:21:57.882Z,5.93
2018-04-25T16:26:48.900Z,5.67
2018-04-25T16:31:40.128Z,2.20
2018-04-25T16:36:31.141Z,4.67
2018-04-25T16:41:22.152Z,2.77
2018-04-25T16:46:13.166Z,4.50
2018-04-25T16:51:04.181Z,1.83
2018-04-25T16:55:56.118Z,5.97
2018-04-25T17:00:47.884Z,2.50
2018-04-25T17:05:38.888Z,3.00
2018-04-25T17:10:30.649Z,3.20
2018-04-25T17:15:21.643Z,3.47
2018-04-25T17:20:13.405Z,1.87
2018-04-25T17:25:04.463Z,3.33
2018-04-25T17:29:56.293Z,6.17
2018-04-25T17:34:47.384Z,4.63
2018-04-25T17:39:39.179Z,1.37
2018-04-25T17:44:30.219Z,4.40
2018-04-25T17:49:21.223Z,3.10
2018-04-25T17:54:12.258Z,3.47
2018-04-25T17:59:03.344Z,4.03
2018-04-25T18:03:54.381Z,7.93
2018-04-25T18:08:45.484Z,5.53
2018-04-25T18:13:36.501Z,2.03
2018-04-25T18:18:27.511Z,5.57
2018-04-25T18:23:26.104Z,4.60
2018-04-25T18:28:17.859Z,4.50
2018-04-25T18:33:08.921Z,5.73
2018-04-25T18:38:00.065Z,5.07
2018-04-25T18:42:51.095Z,2.63
2018-04-25T18:47:42.223Z,2.40
2018-04-25T18:52:33.984Z,3.03
2018-04-25T18:57:25.787Z,5.87
2018-04-25T19:02:16.794Z,3.47
2018-04-25T19:07:07.817Z,5.60
2018-04-25T19:11:58.832Z,4.50
2018-04-25T19:16:50.079Z,3.37
2018-04-25T19:21:41.099Z,2.67
2018-04-25T19:26:32.192Z,3.60
2018-04-25T19:31:23.210Z,2.87
2018-04-25T19:36:14.287Z,3.57
2018-04-25T19:41:06.763Z,2.50
2018-04-25T19:45:58.511Z,2.83
2018-04-25T19:50:50.373Z,5.07
2018-04-25T19:55:41.456Z,5.80
2018-04-25T20:00:32.464Z,8.40
2018-04-25T20:05:23.464Z,5.23
2018-04-25T20:10:14.565Z,4.63
2018-04-25T20:15:05.613Z,3.60
2018-04-25T20:19:56.686Z,8.87
2018-04-25T20:24:47.737Z,10.33
2018-04-25T20:29:38.771Z,4.90
2018-04-25T20:34:29.874Z,6.93
2018-04-25T20:39:21.012Z,5.27
2018-04-25T20:44:12.035Z,5.00
2018-04-25T20:49:03.035Z,5.00
2018-04-25T20:53:54.952Z,4.70
2018-04-25T20:58:46.030Z,6.40
2018-04-25T21:03:37.061Z,5.93
2018-04-25T21:08:28.083Z,3.90
2018-04-25T21:13:19.133Z,3.57
2018-04-25T21:18:10.248Z,2.30
2018-04-25T21:23:01.321Z,3.57
2018-04-25T21:27:53.062Z,3.03
2018-04-25T21:32:44.872Z,2.97
2018-04-25T21:37:35.909Z,3.57
2018-04-25T21:42:27.687Z,5.10
2018-04-25T21:47:18.711Z,4.40
2018-04-25T21:52:09.821Z,3.83
2018-04-25T21:57:00.796Z,4.63
2018-04-25T22:01:51.795Z,6.80
2018-04-25T22:06:42.789Z,6.43
2018-04-25T22:11:33.846Z,4.37
2018-04-25T22:16:24.952Z,4.10
2018-04-25T22:21:15.996Z,3.87
2018-04-25T22:26:07.002Z,3.13
2018-04-25T22:30:58.024Z,3.30
2018-04-25T22:35:49.048Z,4.13
2018-04-25T22:40:40.145Z,4.57
2018-04-25T22:45:31.915Z,4.50
2018-04-25T22:50:22.919Z,3.40
2018-04-25T22:55:13.949Z,5.17
2018-04-25T23:00:04.987Z,3.40
2018-04-25T23:04:56.088Z,7.40
2018-04-25T23:09:47.126Z,4.53
2018-04-25T23:14:38.134Z,3.90
2018-04-25T23:19:29.149Z,4.13
2018-04-25T23:24:20.927Z,3.67
2018-04-25T23:29:12.754Z,5.60
2018-04-25T23:34:03.756Z,7.50
2018-04-25T23:38:54.766Z,5.73
2018-04-25T23:43:46.612Z,6.87
2018-04-25T23:48:38.361Z,4.33
2018-04-25T23:53:29.359Z,4.77
2018-04-25T23:58:20.376Z,5.40
